Time;durP1;ratioP1;P1;durP2;ratioP2;P2;SDS_P1;SDS_P2;PMS_P1;PMS_P2;Temp;Humidity;BMP_temperature;BMP_pressure;BME280_temperature;BME280_humidity;BME280_pressure;Samples;Min_cycle;Max_cycle;Signal;HPM_P1;HPM_P2
2021/04/01 00:02:29;;;;;;;78.50;40.67;;;;;;;11.28;65.46;100314.75;5104985;28;20057;-71
2021/04/01 00:05:15;;;;;;;64.20;40.28;;;;;;;11.22;65.27;100312.38;5107678;28;20066;-72
2021/04/01 00:08:01;;;;;;;73.07;42.25;;;;;;;11.20;65.41;100308.94;5103908;28;20051;-71
2021/04/01 00:10:46;;;;;;;69.57;42.80;;;;;;;11.17;65.40;100302.97;5111779;28;20046;-70
2021/04/01 00:13:31;;;;;;;67.05;42.28;;;;;;;11.10;65.68;100298.91;5105841;28;20100;-70
2021/04/01 00:16:19;;;;;;;81.38;43.60;;;;;;;11.06;65.62;100298.16;5109970;28;20065;-70
2021/04/01 00:19:04;;;;;;;73.25;40.97;;;;;;;11.03;65.52;100289.53;5110859;28;20149;-70
2021/04/01 00:21:50;;;;;;;75.57;43.95;;;;;;;10.97;65.84;100285.41;5104336;28;20127;-68
2021/04/01 00:24:35;;;;;;;76.50;42.78;;;;;;;10.93;65.94;100281.19;5106644;28;20047;-71
2021/04/01 00:27:20;;;;;;;75.28;41.65;;;;;;;10.91;65.92;100280.41;5103189;28;20051;-70
2021/04/01 00:30:06;;;;;;;77.50;41.75;;;;;;;10.87;65.88;100278.81;5100473;28;20113;-70
2021/04/01 00:32:51;;;;;;;71.35;41.50;;;;;;;10.84;65.95;100278.94;5107391;28;20050;-71
2021/04/01 00:35:36;;;;;;;72.72;41.90;;;;;;;10.81;65.99;100273.78;5107853;28;20571;-70
2021/04/01 00:38:22;;;;;;;74.65;41.30;;;;;;;10.78;66.06;100268.66;5102399;28;20621;-70
2021/04/01 00:41:07;;;;;;;70.18;40.80;;;;;;;10.77;66.19;100261.72;5110108;28;20050;-71
2021/04/01 00:43:51;;;;;;;61.30;38.90;;;;;;;10.76;66.37;100254.78;5107973;28;20258;-70
2021/04/01 00:46:36;;;;;;;71.72;39.08;;;;;;;10.73;66.26;100257.50;5106538;28;20061;-70
2021/04/01 00:49:21;;;;;;;68.65;39.67;;;;;;;10.71;66.24;100248.84;5110553;28;20058;-77
2021/04/01 00:52:08;;;;;;;72.05;39.65;;;;;;;10.68;66.33;100252.47;5107225;28;20124;-70
2021/04/01 00:54:53;;;;;;;69.50;40.45;;;;;;;10.63;66.42;100234.28;5104214;28;20058;-70
2021/04/01 00:57:40;;;;;;;70.75;38.45;;;;;;;10.59;66.50;100229.19;5107299;28;20054;-71
2021/04/01 01:00:27;;;;;;;70.03;40.00;;;;;;;10.59;66.25;100237.06;5105642;28;20085;-69
2021/04/01 01:03:11;;;;;;;71.53;39.88;;;;;;;10.59;66.27;100232.66;5108454;28;20070;-70
2021/04/01 01:05:56;;;;;;;70.93;38.65;;;;;;;10.58;66.59;100225.72;5109206;28;20403;-70
2021/04/01 01:08:41;;;;;;;65.57;40.13;;;;;;;10.56;66.52;100222.31;5107410;28;20075;-71
2021/04/01 01:11:27;;;;;;;70.82;40.08;;;;;;;10.54;66.60;100218.03;5108107;28;20054;-70
2021/04/01 01:14:11;;;;;;;71.88;40.20;;;;;;;10.51;66.73;100211.16;5106762;28;20046;-70
2021/04/01 01:16:57;;;;;;;67.43;38.17;;;;;;;10.48;66.51;100210.44;5101581;28;20104;-71
2021/04/01 01:19:50;;;;;;;69.03;37.58;;;;;;;10.46;66.76;100210.50;5112706;28;20502;-77
2021/04/01 01:22:37;;;;;;;72.65;40.15;;;;;;;10.45;66.69;100202.69;5108003;28;20517;-77
2021/04/01 01:25:23;;;;;;;68.63;38.72;;;;;;;10.42;66.81;100205.44;5108227;28;20068;-77
2021/04/01 01:28:08;;;;;;;68.13;39.15;;;;;;;10.36;66.79;100199.47;5105014;28;20406;-77
2021/04/01 01:30:53;;;;;;;68.65;39.13;;;;;;;10.32;66.77;100200.53;5109590;28;20439;-77
2021/04/01 01:33:41;;;;;;;63.40;38.97;;;;;;;10.28;67.00;100196.31;5104896;28;20169;-77
2021/04/01 01:36:26;;;;;;;65.10;38.58;;;;;;;10.26;66.83;100192.06;5104247;28;20534;-72
2021/04/01 01:39:11;;;;;;;69.72;38.95;;;;;;;10.23;66.99;100187.78;5102331;28;20116;-71
2021/04/01 01:41:57;;;;;;;74.60;42.42;;;;;;;10.21;67.01;100186.13;5109614;28;20050;-71
2021/04/01 01:44:42;;;;;;;76.65;40.85;;;;;;;10.19;66.87;100180.03;5103955;28;20051;-70
2021/04/01 01:47:27;;;;;;;68.13;39.97;;;;;;;10.15;66.95;100178.44;5103484;28;20521;-71
2021/04/01 01:50:13;;;;;;;71.68;41.72;;;;;;;10.12;67.18;100171.56;5109140;28;20566;-70
2021/04/01 01:52:58;;;;;;;68.78;38.97;;;;;;;10.08;67.01;100168.22;5107375;28;20210;-70
2021/04/01 01:55:43;;;;;;;77.75;39.67;;;;;;;10.04;67.05;100163.16;5106842;28;20129;-72
2021/04/01 01:58:29;;;;;;;66.80;37.40;;;;;;;9.98;67.27;100164.22;5111849;28;20088;-70
2021/04/01 02:01:16;;;;;;;66.63;36.72;;;;;;;9.93;67.38;100163.53;5109425;28;20472;-71
2021/04/01 02:04:02;;;;;;;72.68;38.85;;;;;;;9.92;67.21;100161.84;5106755;28;20053;-71
2021/04/01 02:06:47;;;;;;;70.07;37.85;;;;;;;9.92;67.26;100156.59;5109967;28;20054;-71
2021/04/01 02:09:32;;;;;;;62.85;38.00;;;;;;;9.90;67.30;100158.41;5107902;28;20462;-70
2021/04/01 02:12:17;;;;;;;67.05;38.00;;;;;;;9.89;67.36;100154.09;5103587;28;20070;-71
2021/04/01 02:15:04;;;;;;;64.55;38.80;;;;;;;9.84;67.50;100157.81;5115299;28;20559;-71
2021/04/01 02:17:49;;;;;;;66.45;36.30;;;;;;;9.82;67.41;100157.88;5106460;28;20496;-71
2021/04/01 02:20:40;;;;;;;69.25;36.72;;;;;;;9.80;67.60;100159.69;5110763;28;20403;-71
2021/04/01 02:23:28;;;;;;;70.17;38.60;;;;;;;9.78;67.59;100153.63;5105472;28;20082;-71
2021/04/01 02:26:13;;;;;;;69.80;37.33;;;;;;;9.77;67.72;100154.53;5106060;28;20388;-71
2021/04/01 02:28:58;;;;;;;66.40;36.17;;;;;;;9.81;67.99;100153.53;5109501;28;20088;-71
2021/04/01 02:31:43;;;;;;;58.72;36.20;;;;;;;9.86;68.04;100150.75;5111907;28;20067;-71
2021/04/01 02:34:28;;;;;;;67.38;37.53;;;;;;;9.90;68.01;100145.31;5112585;28;20053;-71
2021/04/01 02:37:13;;;;;;;60.15;36.13;;;;;;;9.93;68.01;100144.34;5113652;28;20520;-71
2021/04/01 02:39:58;;;;;;;59.42;34.05;;;;;;;10.00;68.30;100149.31;5109109;28;20058;-71
2021/04/01 02:42:43;;;;;;;56.65;31.98;;;;;;;10.07;68.27;100145.56;5107310;28;20085;-71
2021/04/01 02:45:28;;;;;;;53.42;31.58;;;;;;;10.13;68.24;100139.22;5107750;28;20095;-71
2021/04/01 02:48:13;;;;;;;58.63;33.72;;;;;;;10.14;68.08;100129.59;5110446;28;20070;-71
2021/04/01 02:50:58;;;;;;;65.22;35.80;;;;;;;10.09;67.89;100138.50;5107668;28;20480;-71
2021/04/01 02:53:43;;;;;;;56.58;35.13;;;;;;;10.02;67.62;100130.94;5105751;28;20046;-70
2021/04/01 02:56:28;;;;;;;56.22;34.08;;;;;;;9.96;67.63;100132.00;5110904;28;20078;-71
2021/04/01 02:59:12;;;;;;;60.25;36.53;;;;;;;9.94;67.67;100132.97;5108590;28;20059;-71
2021/04/01 03:01:56;;;;;;;60.05;34.38;;;;;;;9.89;67.59;100125.28;5106018;28;20056;-69
2021/04/01 03:04:42;;;;;;;58.95;35.53;;;;;;;9.82;67.79;100121.22;5110922;28;20074;-71
2021/04/01 03:07:27;;;;;;;73.55;40.55;;;;;;;9.78;67.99;100119.59;5104489;28;20516;-71
2021/04/01 03:10:13;;;;;;;68.15;38.35;;;;;;;9.76;67.88;100124.03;5111620;28;20445;-71
2021/04/01 03:12:57;;;;;;;70.40;39.22;;;;;;;9.72;67.84;100127.69;5104880;28;20058;-71
2021/04/01 03:15:42;;;;;;;67.47;37.10;;;;;;;9.71;67.75;100118.13;5110448;28;20051;-70
2021/04/01 03:18:27;;;;;;;65.50;39.13;;;;;;;9.68;67.92;100113.00;5107845;28;20055;-71
2021/04/01 03:21:12;;;;;;;69.35;39.00;;;;;;;9.65;68.26;100115.72;5110547;28;20090;-71
2021/04/01 03:23:57;;;;;;;72.85;39.65;;;;;;;9.62;68.10;100110.63;5109051;28;20093;-71
2021/04/01 03:26:42;;;;;;;73.93;40.65;;;;;;;9.61;67.97;100108.91;5106152;28;20073;-71
2021/04/01 03:29:27;;;;;;;74.82;42.55;;;;;;;9.60;67.82;100113.28;5110284;28;20066;-70
2021/04/01 03:32:11;;;;;;;70.00;42.63;;;;;;;9.60;68.10;100104.59;5105844;28;20055;-69
2021/04/01 03:34:56;;;;;;;70.35;41.75;;;;;;;9.58;68.29;100109.88;5105224;28;20054;-70
2021/04/01 03:37:44;;;;;;;73.05;41.20;;;;;;;9.51;68.08;100108.38;5115289;28;20414;-76
2021/04/01 03:40:30;;;;;;;74.00;40.63;;;;;;;9.50;68.27;100105.81;5108627;28;20047;-76
2021/04/01 03:43:14;;;;;;;74.78;42.40;;;;;;;9.46;68.20;100111.16;5106016;28;20411;-77
2021/04/01 03:46:01;;;;;;;68.05;39.95;;;;;;;9.41;68.42;100096.53;5109627;28;20101;-78
2021/04/01 03:48:46;;;;;;;79.75;42.20;;;;;;;9.37;68.51;100095.81;5108848;28;20038;-69
2021/04/01 03:51:31;;;;;;;68.65;42.25;;;;;;;9.34;68.52;100100.28;5109436;28;20097;-70
2021/04/01 03:54:16;;;;;;;71.90;44.10;;;;;;;9.27;68.73;100086.56;5103899;28;20135;-70
2021/04/01 03:57:02;;;;;;;75.78;43.53;;;;;;;9.25;68.77;100091.00;5112616;28;20047;-77
2021/04/01 03:59:50;;;;;;;83.78;45.25;;;;;;;9.22;68.67;100091.13;5106202;28;20494;-77
2021/04/01 04:02:41;;;;;;;88.97;44.30;;;;;;;9.21;68.73;100092.03;5109923;28;20181;-76
2021/04/01 04:05:35;;;;;;;87.10;46.67;;;;;;;9.20;68.71;100089.47;5108379;28;20119;-77
2021/04/01 04:11:28;;;;;;;79.05;45.63;;;;;;;9.14;68.68;100077.44;5099673;28;20093;-78
2021/04/01 04:14:17;;;;;;;76.07;46.95;;;;;;;9.14;68.74;100074.81;5106008;28;20043;-76
2021/04/01 04:17:02;;;;;;;80.85;45.20;;;;;;;9.13;68.60;100070.50;5108016;28;20405;-77
2021/04/01 04:19:46;;;;;;;81.07;45.80;;;;;;;9.13;68.82;100067.88;5110236;28;20386;-77
2021/04/01 04:22:31;;;;;;;80.88;46.30;;;;;;;9.14;68.75;100057.34;5103768;28;20464;-77
2021/04/01 04:25:17;;;;;;;80.47;45.28;;;;;;;9.19;68.54;100054.59;5107380;28;20382;-76
2021/04/01 04:28:13;;;;;;;76.07;45.42;;;;;;;9.23;68.60;100055.34;5110668;28;20091;-78
2021/04/01 04:30:58;;;;;;;75.07;45.00;;;;;;;9.25;68.57;100048.28;5107332;28;20097;-77
2021/04/01 04:33:42;;;;;;;80.65;47.30;;;;;;;9.24;68.51;100042.22;5098131;28;20457;-70
2021/04/01 04:36:27;;;;;;;80.43;44.28;;;;;;;9.28;68.45;100041.19;5105738;28;20155;-70
2021/04/01 04:39:12;;;;;;;72.80;42.58;;;;;;;9.33;68.25;100031.41;5098611;28;20088;-76
2021/04/01 04:41:57;;;;;;;72.28;42.95;;;;;;;9.41;68.21;100039.84;5098887;28;20097;-77
2021/04/01 04:44:43;;;;;;;70.63;44.03;;;;;;;9.49;67.90;100031.69;5102563;28;20530;-78
2021/04/01 04:47:27;;;;;;;70.57;41.75;;;;;;;9.55;67.92;100030.59;5096002;28;20563;-78
2021/04/01 04:50:14;;;;;;;72.28;40.92;;;;;;;9.66;67.69;100025.81;5098232;28;20046;-77
2021/04/01 04:52:58;;;;;;;67.40;41.47;;;;;;;9.78;67.50;100033.19;5103928;28;20074;-78
2021/04/01 04:55:50;;;;;;;72.78;42.83;;;;;;;9.89;67.20;100040.66;5110424;28;20065;-77
2021/04/01 04:58:39;;;;;;;88.18;48.70;;;;;;;9.97;66.98;100026.34;5101252;28;20093;-76
2021/04/01 05:04:40;;;;;;;72.40;42.17;;;;;;;10.13;66.88;100023.13;5101265;28;20077;-77
2021/04/01 05:07:25;;;;;;;71.50;42.58;;;;;;;10.21;66.59;100028.94;5105069;28;20172;-75
2021/04/01 05:10:11;;;;;;;71.45;44.45;;;;;;;10.26;66.67;100024.38;5108264;28;20143;-78
2021/04/01 05:13:08;;;;;;;75.03;44.17;;;;;;;10.35;66.58;100021.38;5103186;28;20099;-76
2021/04/01 05:15:52;;;;;;;66.75;41.33;;;;;;;10.46;66.25;100021.78;5104211;28;20521;-76
2021/04/01 05:18:38;;;;;;;70.25;42.15;;;;;;;10.55;66.21;100010.91;5109226;28;20178;-76
2021/04/01 05:21:29;;;;;;;85.05;49.42;;;;;;;10.63;66.09;100013.22;5104458;28;20101;-76
2021/04/01 05:24:17;;;;;;;;;;;;;;;10.87;65.62;100012.16;5105585;28;20054;-72
2021/04/01 05:27:18;;;;;;;100.88;49.58;;;;;;;10.98;65.29;100006.44;5104645;28;19966;-76
2021/04/01 05:30:07;;;;;;;83.00;42.55;;;;;;;11.23;64.74;100001.81;5106755;28;20108;-77
2021/04/01 05:32:51;;;;;;;71.70;42.67;;;;;;;11.54;64.45;100005.69;5101632;28;20440;-70
2021/04/01 05:35:37;;;;;;;66.82;38.03;;;;;;;11.86;63.71;99989.28;5109609;28;20188;-71
2021/04/01 05:38:22;;;;;;;63.42;36.42;;;;;;;12.32;62.82;99991.47;5103166;28;20055;-71
2021/04/01 05:41:09;;;;;;;50.55;32.78;;;;;;;12.79;61.79;99994.34;5108425;28;20116;-72
2021/04/01 05:44:02;;;;;;;54.75;32.50;;;;;;;13.60;59.94;99995.31;5110123;28;20403;-71
2021/04/01 05:46:52;;;;;;;52.85;32.33;;;;;;;14.39;58.32;99985.56;5109008;28;20120;-71
2021/04/01 05:49:48;;;;;;;54.30;32.60;;;;;;;14.65;57.90;99986.69;5110206;28;20128;-72
2021/04/01 06:02:10;;;;;;;47.55;31.75;;;;;;;14.86;57.45;99966.94;5060368;28;20055;-72
2021/04/01 06:05:04;;;;;;;47.30;30.15;;;;;;;15.18;56.17;99961.47;5101938;28;20050;-73
2021/04/01 06:07:53;;;;;;;44.85;29.73;;;;;;;15.59;55.32;99958.06;5104895;28;20079;-73
2021/04/01 06:10:40;;;;;;;48.33;31.60;;;;;;;16.11;54.14;99961.69;5105707;28;20133;-72
2021/04/01 06:13:29;;;;;;;48.35;32.47;;;;;;;16.64;52.74;99951.94;5107650;28;20059;-72
2021/04/01 06:16:13;;;;;;;50.13;29.75;;;;;;;17.04;51.55;99955.38;5110639;28;20057;-71
2021/04/01 06:19:00;;;;;;;49.38;30.70;;;;;;;17.19;51.11;99956.09;5111249;28;20508;-74
2021/04/01 06:21:46;;;;;;;47.05;30.00;;;;;;;17.30;51.14;99948.25;5100568;28;20604;-73
2021/04/01 06:24:33;;;;;;;48.58;28.77;;;;;;;17.68;50.19;99942.88;5103789;28;20679;-73
2021/04/01 06:27:23;;;;;;;43.03;28.73;;;;;;;18.14;48.68;99955.44;5106034;28;20169;-77
2021/04/01 06:30:23;;;;;;;55.13;31.45;;;;;;;18.46;48.17;99953.00;5107672;28;20125;-77
2021/04/01 06:33:10;;;;;;;51.70;31.05;;;;;;;18.73;47.93;99947.44;5107235;28;20043;-77
2021/04/01 06:35:56;;;;;;;44.28;31.20;;;;;;;18.97;47.62;99949.19;5105802;28;20135;-75
2021/04/01 06:38:41;;;;;;;47.22;31.05;;;;;;;19.16;47.08;99954.75;5107695;28;20418;-75
2021/04/01 06:41:28;;;;;;;58.92;31.98;;;;;;;19.05;46.96;99944.94;5108759;28;20149;-76
2021/04/01 06:44:28;;;;;;;67.40;35.38;;;;;;;18.92;47.54;99946.84;5107029;28;20046;-75
2021/04/01 06:47:16;;;;;;;50.20;32.03;;;;;;;19.19;46.45;99944.72;5105410;28;20505;-76
2021/04/01 06:50:08;;;;;;;48.65;31.30;;;;;;;19.17;46.96;99941.34;5104261;28;20181;-77
2021/04/01 06:53:00;;;;;;;49.50;29.80;;;;;;;19.41;46.44;99938.53;5101828;28;20059;-76
2021/04/01 06:55:57;;;;;;;52.03;31.70;;;;;;;20.05;45.07;99940.47;5104417;28;20119;-76
2021/04/01 06:58:57;;;;;;;49.78;32.40;;;;;;;20.45;44.31;99937.19;5106044;28;21970;-76
2021/04/01 07:01:51;;;;;;;53.92;31.88;;;;;;;21.20;43.45;99931.56;5104764;28;20050;-74
2021/04/01 07:04:37;;;;;;;65.30;35.20;;;;;;;23.83;38.31;99918.66;5109314;28;20047;-76
2021/04/01 07:07:24;;;;;;;45.42;28.92;;;;;;;25.78;34.88;99919.97;5107500;28;20059;-76
2021/04/01 07:10:17;;;;;;;46.88;28.92;;;;;;;25.57;35.01;99923.09;5105810;28;20097;-74
2021/04/01 07:13:07;;;;;;;39.08;27.85;;;;;;;27.06;33.04;99911.25;5108165;28;20575;-76
2021/04/01 07:15:58;;;;;;;43.20;27.40;;;;;;;28.12;31.57;99900.81;5119953;28;20077;-76
2021/04/01 07:19:15;;;;;;;41.35;26.95;;;;;;;28.87;29.84;99907.25;5113347;28;20061;-73
2021/04/01 07:32:08;;;;;;;37.60;26.35;;;;;;;29.27;28.87;99898.66;5103794;28;20043;-78
2021/04/01 07:35:25;;;;;;;43.92;28.20;;;;;;;29.29;28.28;99898.47;5104918;28;20104;-77
2021/04/01 07:47:33;;;;;;;34.67;24.02;;;;;;;29.56;27.93;99894.25;5101999;28;20168;-72
2021/04/01 07:50:21;;;;;;;34.67;24.85;;;;;;;30.10;27.02;99886.56;5110148;28;20448;-71
2021/04/01 07:53:08;;;;;;;36.42;23.77;;;;;;;29.79;26.87;99878.75;5109047;28;20162;-70
2021/04/01 07:56:08;;;;;;;36.47;24.85;;;;;;;29.95;26.87;99877.66;5106507;28;20062;-71
2021/04/01 07:59:06;;;;;;;47.15;24.80;;;;;;;30.03;26.56;99873.00;5105615;28;20063;-72
2021/04/01 08:02:08;;;;;;;47.90;24.83;;;;;;;32.54;23.43;99859.78;5102835;28;20046;-70
2021/04/01 08:04:58;;;;;;;38.20;24.25;;;;;;;35.16;20.71;99851.22;5102604;28;20058;-74
2021/04/01 08:07:53;;;;;;;43.35;25.75;;;;;;;37.09;19.03;99839.78;5101799;28;20047;-74
2021/04/01 08:10:41;;;;;;;36.03;24.67;;;;;;;38.79;17.23;99843.34;5101339;28;20129;-73
2021/04/01 08:13:31;;;;;;;35.70;21.17;;;;;;;39.56;16.52;99834.97;5108745;28;20464;-72
2021/04/01 08:16:20;;;;;;;35.97;21.83;;;;;;;40.68;15.90;99829.59;5106315;28;20486;-73
2021/04/01 08:19:06;;;;;;;29.95;20.38;;;;;;;41.62;14.63;99828.59;5106670;28;20521;-72
2021/04/01 08:21:53;;;;;;;31.45;20.48;;;;;;;42.54;14.13;99832.22;5103846;28;20050;-72
2021/04/01 08:24:44;;;;;;;30.42;20.10;;;;;;;43.05;13.68;99832.06;5107023;28;20127;-72
2021/04/01 08:27:42;;;;;;;26.98;18.45;;;;;;;42.00;14.28;99832.78;5102494;28;20131;-73
2021/04/01 08:33:56;;;;;;;26.58;16.50;;;;;;;37.08;17.81;99821.72;5096718;28;20051;-72
2021/04/01 08:38:13;;;;;;;26.42;19.38;;;;;;;36.17;18.79;99822.31;3620725;39;20422;-71
2021/04/01 08:41:02;;;;;;;30.07;20.40;;;;;;;35.74;18.99;99812.50;3619761;39;20082;-72
2021/04/01 08:44:08;;;;;;;30.65;21.15;;;;;;;34.97;19.68;99819.59;3612486;39;20367;-72
2021/04/01 08:47:10;;;;;;;30.48;20.33;;;;;;;34.73;19.82;99822.16;3611019;39;20075;-72
2021/04/01 08:50:04;;;;;;;27.92;18.23;;;;;;;34.74;19.38;99812.91;3611892;39;20221;-72
2021/04/01 08:53:08;;;;;;;29.42;18.50;;;;;;;35.22;19.25;99814.91;3612176;39;20088;-72
2021/04/01 08:56:00;;;;;;;31.00;17.80;;;;;;;35.72;18.61;99806.44;3611891;39;20079;-72
2021/04/01 08:58:59;;;;;;;25.10;16.90;;;;;;;37.07;17.19;99803.66;3612067;39;20078;-71
2021/04/01 09:01:44;;;;;;;32.50;18.48;;;;;;;37.35;17.24;99800.13;3610992;39;20096;-72
2021/04/01 09:04:32;;;;;;;24.38;16.67;;;;;;;37.29;17.34;99800.28;3611518;39;20159;-72
2021/04/01 09:07:25;;;;;;;22.42;15.52;;;;;;;38.12;16.42;99791.38;3612219;39;20164;-72
2021/04/01 09:10:15;;;;;;;25.42;16.23;;;;;;;38.44;16.07;99788.84;3610369;39;20075;-71
2021/04/01 09:13:06;;;;;;;24.67;16.90;;;;;;;39.62;15.33;99781.84;3610838;39;20071;-74
2021/04/01 09:15:53;;;;;;;23.15;15.15;;;;;;;40.59;13.63;99779.81;3612053;39;20183;-72
2021/04/01 09:18:39;;;;;;;23.15;14.98;;;;;;;41.01;13.66;99781.66;3612383;39;20106;-73
2021/04/01 09:21:31;;;;;;;22.10;13.40;;;;;;;40.81;13.94;99776.91;3611937;39;20086;-73
2021/04/01 09:24:16;;;;;;;25.48;13.57;;;;;;;40.81;13.60;99787.91;3611763;39;20560;-72
2021/04/01 09:27:01;;;;;;;20.70;12.00;;;;;;;40.97;13.43;99772.31;3611928;39;20203;-72
2021/04/01 09:29:47;;;;;;;18.60;11.27;;;;;;;41.76;12.63;99771.13;3612460;39;20440;-72
2021/04/01 09:32:34;;;;;;;21.85;11.63;;;;;;;41.99;12.37;99771.38;3611863;39;20501;-71
2021/04/01 09:35:22;;;;;;;21.50;12.40;;;;;;;41.90;11.96;99761.22;3611639;39;20098;-73
2021/04/01 09:38:09;;;;;;;24.83;14.48;;;;;;;40.84;13.36;99748.91;3610102;39;20086;-72
2021/04/01 09:40:54;;;;;;;23.15;14.70;;;;;;;40.63;13.36;99755.41;3610002;39;20078;-75
2021/04/01 09:43:49;;;;;;;25.17;16.05;;;;;;;39.10;14.74;99750.53;3611242;39;20167;-72
2021/04/01 09:46:36;;;;;;;29.55;15.88;;;;;;;37.76;15.35;99755.22;3610952;39;20087;-72
2021/04/01 09:49:22;;;;;;;20.05;14.60;;;;;;;36.70;16.22;99750.41;3604168;39;20207;-72
2021/04/01 09:52:08;;;;;;;22.63;14.10;;;;;;;35.32;17.37;99752.50;3605030;39;20078;-73
2021/04/01 09:54:59;;;;;;;23.40;14.70;;;;;;;33.88;19.28;99753.06;3604559;39;20160;-71
2021/04/01 09:57:46;;;;;;;;;;;;;;;33.60;19.52;99750.75;3603037;39;20094;-73
2021/04/01 10:00:38;;;;;;;22.23;12.27;;;;;;;32.90;19.94;99750.72;3604069;39;20291;-71
2021/04/01 10:03:28;;;;;;;21.38;12.43;;;;;;;32.44;19.38;99748.13;3603796;39;20244;-74
2021/04/01 10:06:26;;;;;;;19.98;11.65;;;;;;;31.77;20.50;99747.34;3603693;39;20074;-73
2021/04/01 10:09:14;;;;;;;23.85;11.70;;;;;;;31.44;20.91;99741.00;3604836;39;20141;-73
2021/04/01 10:12:01;;;;;;;22.70;11.32;;;;;;;30.99;20.93;99746.06;3603903;39;20176;-73
2021/04/01 10:14:51;;;;;;;22.15;12.10;;;;;;;30.39;21.51;99747.63;3604359;39;20063;-72
2021/04/01 10:17:37;;;;;;;20.05;11.75;;;;;;;29.91;21.49;99750.19;3602931;39;20075;-72
2021/04/01 10:20:23;;;;;;;28.77;12.35;;;;;;;29.44;22.09;99753.47;3604010;39;20200;-74
2021/04/01 10:23:08;;;;;;;23.20;12.43;;;;;;;29.01;22.26;99758.00;3603692;39;20078;-70
2021/04/01 10:26:03;;;;;;;22.02;12.48;;;;;;;28.58;22.38;99752.44;3603558;39;20128;-71
2021/04/01 10:28:58;;;;;;;21.17;11.82;;;;;;;28.21;23.05;99746.06;3604295;39;20071;-71
2021/04/01 10:31:45;;;;;;;25.88;12.50;;;;;;;27.92;22.93;99746.03;3603057;39;20086;-72
2021/04/01 10:34:35;;;;;;;25.73;13.57;;;;;;;27.77;23.26;99737.09;3602550;39;20142;-72
2021/04/01 10:37:24;;;;;;;23.47;13.17;;;;;;;27.42;23.29;99749.28;3602473;39;20153;-72
2021/04/01 10:40:10;;;;;;;25.00;11.98;;;;;;;27.06;24.21;99728.31;3604242;39;20342;-72
2021/04/01 10:43:04;;;;;;;22.20;12.73;;;;;;;26.65;24.28;99735.72;3603457;39;20328;-72
2021/04/01 10:45:49;;;;;;;24.40;13.02;;;;;;;26.74;24.80;99729.31;3604712;39;20237;-72
2021/04/01 10:48:36;;;;;;;24.88;12.00;;;;;;;26.69;24.05;99726.31;3604151;39;20168;-71
2021/04/01 10:51:22;;;;;;;20.55;12.18;;;;;;;26.51;24.52;99720.34;3603310;39;20078;-72
2021/04/01 10:54:11;;;;;;;23.75;11.52;;;;;;;26.38;24.74;99721.72;3605111;39;20078;-71
2021/04/01 10:56:56;;;;;;;21.33;11.50;;;;;;;25.91;23.95;99715.41;3603717;39;20180;-71
2021/04/01 10:59:43;;;;;;;23.90;12.02;;;;;;;25.67;24.35;99708.19;3604114;39;20151;-72
2021/04/01 11:02:35;;;;;;;17.13;9.73;;;;;;;25.63;23.67;99706.88;3604451;39;20106;-71
2021/04/01 11:05:23;;;;;;;15.02;9.45;;;;;;;25.43;22.71;99711.72;3604279;39;20071;-72
2021/04/01 11:08:09;;;;;;;17.10;10.10;;;;;;;25.38;22.57;99708.69;3603202;39;20328;-73
2021/04/01 11:11:00;;;;;;;20.00;11.23;;;;;;;25.21;22.80;99700.66;3599772;39;20499;-72
2021/04/01 11:13:46;;;;;;;20.23;9.75;;;;;;;24.98;23.49;99704.06;3602891;39;20141;-72
2021/04/01 11:16:34;;;;;;;16.98;10.07;;;;;;;24.72;23.69;99698.81;3602254;39;20102;-71
2021/04/01 11:19:20;;;;;;;17.73;9.98;;;;;;;24.62;23.73;99707.00;3602410;39;20149;-71
2021/04/01 11:22:05;;;;;;;19.55;10.98;;;;;;;24.54;23.83;99702.44;3602457;39;20157;-71
2021/04/01 11:24:49;;;;;;;20.73;10.95;;;;;;;24.45;24.28;99695.38;3602485;39;20075;-72
2021/04/01 11:27:35;;;;;;;32.20;12.35;;;;;;;24.35;24.07;99702.69;3602034;39;20140;-70
2021/04/01 11:30:21;;;;;;;27.75;11.93;;;;;;;24.33;24.62;99696.63;3600927;39;20074;-72
2021/04/01 11:33:06;;;;;;;19.70;9.90;;;;;;;24.48;24.40;99684.31;3602396;39;20090;-72
2021/04/01 11:36:00;;;;;;;22.20;11.07;;;;;;;24.59;24.37;99692.09;3602105;39;20098;-79
2021/04/01 11:38:49;;;;;;;19.08;10.98;;;;;;;24.79;24.18;99676.56;3603622;39;20079;-77
2021/04/01 11:41:34;;;;;;;23.05;10.63;;;;;;;24.87;23.94;99687.31;3602231;39;20086;-77
2021/04/01 11:44:20;;;;;;;19.33;9.82;;;;;;;24.63;24.18;99677.34;3603414;39;20082;-78
2021/04/01 11:47:19;;;;;;;22.00;10.40;;;;;;;24.44;24.75;99677.63;3601341;39;20173;-79
2021/04/01 11:50:07;;;;;;;17.98;10.98;;;;;;;24.42;24.57;99673.44;3602509;39;20438;-79
2021/04/01 11:52:57;;;;;;;21.77;9.32;;;;;;;24.35;25.02;99672.38;3601550;39;20305;-78
2021/04/01 11:55:52;;;;;;;16.13;9.90;;;;;;;24.37;24.08;99667.72;3603526;39;20157;-77
2021/04/01 11:58:37;;;;;;;18.38;9.63;;;;;;;24.23;24.27;99658.41;3599224;39;20071;-78
2021/04/01 12:01:26;;;;;;;19.02;9.93;;;;;;;24.25;23.96;99659.91;3601976;39;20092;-79
2021/04/01 12:04:12;;;;;;;20.73;10.82;;;;;;;24.24;23.61;99665.44;3602603;39;20066;-79
2021/04/01 12:06:57;;;;;;;16.35;9.68;;;;;;;24.27;23.95;99662.44;3603068;39;20171;-78
2021/04/01 12:09:46;;;;;;;15.25;8.18;;;;;;;24.29;23.52;99655.13;3602106;39;20495;-77
2021/04/01 12:12:33;;;;;;;18.40;9.77;;;;;;;24.16;23.22;99654.69;3600614;39;20079;-78
2021/04/01 12:15:28;;;;;;;16.63;9.10;;;;;;;24.19;23.16;99649.03;3600654;39;20407;-79
2021/04/01 12:18:14;;;;;;;21.00;10.02;;;;;;;24.35;23.30;99659.81;3597148;39;20168;-79
2021/04/01 12:20:58;;;;;;;16.67;9.70;;;;;;;24.36;23.36;99656.13;3599493;39;20083;-78
2021/04/01 12:23:49;;;;;;;16.85;8.85;;;;;;;24.44;23.36;99644.63;3603781;39;20127;-78
2021/04/01 12:26:43;;;;;;;14.13;8.50;;;;;;;24.46;23.44;99648.81;3599836;39;20070;-78
2021/04/01 12:29:27;;;;;;;13.77;8.68;;;;;;;24.47;23.11;99634.41;3600671;39;20074;-78
2021/04/01 12:32:13;;;;;;;17.55;8.80;;;;;;;24.44;23.34;99640.09;3603726;39;20074;-77
2021/04/01 12:35:10;;;;;;;18.20;9.68;;;;;;;24.46;23.26;99631.91;3603473;39;20427;-77
2021/04/01 12:38:02;;;;;;;18.75;9.63;;;;;;;24.58;23.36;99623.41;3600550;39;20070;-78
2021/04/01 12:40:47;;;;;;;14.90;8.35;;;;;;;24.68;23.47;99623.25;3602335;39;20099;-78
2021/04/01 12:43:33;;;;;;;15.18;8.98;;;;;;;24.77;23.03;99616.88;3601139;39;20208;-78
2021/04/01 12:46:18;;;;;;;14.57;9.13;;;;;;;24.83;23.11;99618.09;3601512;39;20164;-77
2021/04/01 12:49:04;;;;;;;16.58;9.20;;;;;;;24.71;22.56;99619.41;3601963;39;20473;-78
2021/04/01 12:51:54;;;;;;;14.60;9.32;;;;;;;24.49;23.14;99613.66;3604361;39;20079;-78
2021/04/01 12:54:41;;;;;;;;;;;;;;;24.43;23.21;99610.81;3601811;39;20074;-77
2021/04/01 12:57:26;;;;;;;18.80;9.90;;;;;;;24.41;23.01;99612.81;3601868;39;19935;-76
2021/04/01 13:00:12;;;;;;;20.20;10.27;;;;;;;24.39;23.08;99614.81;3599459;39;20172;-77
2021/04/01 13:02:56;;;;;;;18.85;8.57;;;;;;;24.36;22.97;99609.75;3597892;39;20080;-77
2021/04/01 13:05:43;;;;;;;16.48;10.60;;;;;;;24.35;22.82;99606.25;3598873;39;20082;-78
2021/04/01 13:08:49;;;;;;;13.65;9.32;;;;;;;24.38;22.92;99592.53;3599002;39;20086;-78
2021/04/01 13:11:34;;;;;;;15.35;9.88;;;;;;;24.44;22.65;99596.41;3600668;39;20455;-77
2021/04/01 13:14:19;;;;;;;15.60;9.73;;;;;;;24.53;22.16;99595.41;3598419;39;20085;-77
2021/04/01 13:17:04;;;;;;;20.20;10.27;;;;;;;24.72;22.26;99594.28;3601331;39;20177;-77
2021/04/01 13:19:49;;;;;;;17.77;10.98;;;;;;;24.84;22.23;99587.59;3601193;39;20328;-80
2021/04/01 13:22:44;;;;;;;15.85;10.55;;;;;;;25.03;22.15;99595.34;3600707;39;20071;-78
2021/04/01 13:25:31;;;;;;;17.30;11.50;;;;;;;25.07;22.03;99583.28;3602105;39;20144;-77
2021/04/01 13:28:15;;;;;;;20.75;11.98;;;;;;;25.02;22.44;99585.63;3604106;39;20079;-77
2021/04/01 13:31:01;;;;;;;17.40;10.82;;;;;;;25.10;22.31;99572.22;3601722;39;20095;-78
2021/04/01 13:33:52;;;;;;;17.50;10.52;;;;;;;25.06;21.63;99575.41;3602569;39;20067;-76